Time;durP1;ratioP1;P1;durP2;ratioP2;P2;SDS_P1;SDS_P2;PMS_P1;PMS_P2;Temp;Humidity;BMP_temperature;BMP_pressure;BME280_temperature;BME280_humidity;BME280_pressure;Samples;Min_cycle;Max_cycle;Signal;HPM_P1;HPM_P2
2022/07/08 00:15:52;;;;;;;5.53;3.33;;;16.10;39.80;;;;;;2613041;54;20359;-75
2022/07/08 00:21:39;;;;;;;5.60;3.30;;;16.10;39.10;;;;;;2614515;39;20615;-73
2022/07/08 00:27:26;;;;;;;4.33;3.63;;;16.00;42.10;;;;;;2612804;54;20515;-74
2022/07/08 00:33:14;;;;;;;4.40;3.23;;;16.00;48.90;;;;;;2614378;31;20624;-74
2022/07/08 00:39:01;;;;;;;5.10;3.57;;;16.00;47.20;;;;;;2613827;54;20183;-73
2022/07/08 00:44:48;;;;;;;4.00;3.30;;;15.80;47.00;;;;;;2612880;54;20135;-75
2022/07/08 00:50:36;;;;;;;4.17;3.37;;;15.90;45.80;;;;;;2614869;54;20709;-76
2022/07/08 00:53:39;;;;;;;6.90;3.40;;;15.90;48.70;;;;;;2614073;47;20443;-74
2022/07/08 00:56:05;;;;;;;5.93;3.23;;;15.80;51.80;;;;;;2615180;54;20248;-74
2022/07/08 01:01:53;;;;;;;10.23;3.77;;;15.90;54.20;;;;;;2614698;54;20383;-79
2022/07/08 01:08:00;;;;;;;9.40;3.03;;;15.60;58.30;;;;;;2614151;39;20552;-79
2022/07/08 01:13:47;;;;;;;7.67;3.57;;;15.80;56.00;;;;;;2613757;54;20163;-79
2022/07/08 01:19:35;;;;;;;11.00;4.03;;;15.60;48.70;;;;;;2613771;54;20449;-79
2022/07/08 01:25:22;;;;;;;7.67;3.53;;;15.70;51.00;;;;;;2613656;54;20134;-77
2022/07/08 01:31:10;;;;;;;7.10;3.67;;;15.90;58.70;;;;;;2613333;54;20131;-75
2022/07/08 01:36:57;;;;;;;7.30;3.07;;;15.70;75.00;;;;;;2613854;54;20437;-75
2022/07/08 01:42:44;;;;;;;8.97;4.40;;;15.60;85.20;;;;;;2613959;54;20265;-74
2022/07/08 01:48:32;;;;;;;11.33;4.00;;;15.60;91.00;;;;;;2614219;54;20257;-75
2022/07/08 01:54:20;;;;;;;7.40;3.93;;;15.60;91.70;;;;;;2614976;54;20133;-75
2022/07/08 02:00:08;;;;;;;9.00;3.80;;;15.50;94.10;;;;;;2614085;54;20155;-75
2022/07/08 02:05:56;;;;;;;8.50;3.77;;;15.50;95.50;;;;;;2613699;54;20426;-75
2022/07/08 02:17:49;;;;;;;8.37;3.63;;;15.50;93.40;;;;;;2613218;54;20390;-74
2022/07/08 02:23:37;;;;;;;9.97;4.30;;;15.60;93.20;;;;;;2614268;54;20123;-74
2022/07/08 02:29:25;;;;;;;8.27;3.17;;;15.50;93.50;;;;;;2614937;39;20526;-73
2022/07/08 02:35:12;;;;;;;7.63;3.80;;;15.60;91.90;;;;;;2614001;54;20175;-74
2022/07/08 02:41:00;;;;;;;6.80;3.70;;;15.30;95.00;;;;;;2614290;54;20139;-73
2022/07/08 02:46:48;;;;;;;11.10;3.67;;;15.40;95.90;;;;;;2614040;54;20242;-74
2022/07/08 02:52:36;;;;;;;3.97;3.57;;;15.50;92.00;;;;;;2614855;46;20153;-74
2022/07/08 02:58:24;;;;;;;6.27;3.47;;;15.50;92.90;;;;;;2614060;54;20135;-75
2022/07/08 03:04:12;;;;;;;7.80;3.33;;;15.50;92.60;;;;;;2614499;39;20502;-73
2022/07/08 03:09:59;;;;;;;8.90;5.07;;;15.30;96.40;;;;;;2614641;54;20129;-73
2022/07/08 03:15:48;;;;;;;6.17;3.93;;;15.40;96.50;;;;;;2612849;54;20122;-73
2022/07/08 03:21:35;;;;;;;6.10;3.83;;;15.20;98.70;;;;;;2615641;54;20399;-77
2022/07/08 03:27:23;;;;;;;5.67;4.40;;;15.30;99.90;;;;;;2615442;54;20162;-78
2022/07/08 03:33:11;;;;;;;5.03;3.50;;;15.40;99.90;;;;;;2615049;54;20209;-78
2022/07/08 03:38:59;;;;;;;4.83;3.60;;;15.40;99.90;;;;;;2615314;54;20282;-79
2022/07/08 03:44:47;;;;;;;11.30;3.67;;;15.60;99.90;;;;;;2616689;39;20201;-78
2022/07/08 03:50:35;;;;;;;8.17;3.90;;;15.40;99.90;;;;;;2616057;39;20745;-80
2022/07/08 03:56:22;;;;;;;10.20;3.83;;;15.50;99.10;;;;;;2615769;54;20134;-76
2022/07/08 04:02:10;;;;;;;11.80;5.03;;;15.40;99.90;;;;;;2614922;54;20122;-81
2022/07/08 04:04:55;;;;;;;8.73;3.97;;;15.30;99.90;;;;;;2615456;54;20454;-78
2022/07/08 04:07:21;;;;;;;5.20;3.53;;;15.40;99.90;;;;;;2615195;54;20849;-80
2022/07/08 04:13:08;;;;;;;6.90;3.40;;;15.60;99.90;;;;;;2615845;54;20150;-78
2022/07/08 04:18:56;;;;;;;4.40;3.33;;;15.70;97.50;;;;;;2615616;54;20196;-79
2022/07/08 04:24:44;;;;;;;5.70;3.20;;;15.60;97.90;;;;;;2615734;39;20515;-79
2022/07/08 04:30:32;;;;;;;8.83;4.83;;;15.50;98.50;;;;;;2615717;54;20143;-79
2022/07/08 04:36:21;;;;;;;5.90;3.50;;;15.50;99.90;;;;;;2615966;46;20158;-79
2022/07/08 04:42:08;;;;;;;10.90;3.40;;;15.70;98.40;;;;;;2615476;54;20419;-78
2022/07/08 04:47:56;;;;;;;6.10;3.70;;;15.80;99.00;;;;;;2615551;39;20549;-79
2022/07/08 04:53:43;;;;;;;7.80;3.60;;;15.80;97.90;;;;;;2615636;54;20668;-79
2022/07/08 04:59:31;;;;;;;8.83;3.60;;;15.80;99.40;;;;;;2615609;54;20120;-77
2022/07/08 05:15:34;;;;;;;6.03;3.67;;;15.90;97.80;;;;;;2613985;54;20391;-80
2022/07/08 05:21:21;;;;;;;10.13;5.20;;;16.10;96.40;;;;;;2613773;54;20460;-80
2022/07/08 05:27:08;;;;;;;8.87;4.30;;;16.40;92.20;;;;;;2613336;46;20473;-78
2022/07/08 05:32:56;;;;;;;7.03;3.90;;;16.10;92.00;;;;;;2612936;54;20201;-75
2022/07/08 05:38:43;;;;;;;7.13;3.23;;;16.30;90.20;;;;;;2612661;54;20339;-75
2022/07/08 05:44:30;;;;;;;6.50;3.53;;;16.70;82.80;;;;;;2612345;54;20138;-73
2022/07/08 05:50:18;;;;;;;10.47;4.13;;;16.70;73.30;;;;;;2612996;47;20161;-74
2022/07/08 05:56:06;;;;;;;6.80;3.53;;;16.70;73.40;;;;;;2614918;39;20206;-74
2022/07/08 06:01:54;;;;;;;5.93;3.60;;;16.70;67.40;;;;;;2613787;39;20766;-74
2022/07/08 06:08:00;;;;;;;6.20;3.40;;;17.40;59.20;;;;;;2610987;54;20807;-73
2022/07/08 06:13:47;;;;;;;4.60;3.23;;;17.60;47.40;;;;;;2612925;54;20186;-73
2022/07/08 06:19:34;;;;;;;6.93;3.53;;;18.30;35.40;;;;;;2613837;39;20634;-74
2022/07/08 06:25:21;;;;;;;10.67;4.40;;;18.00;30.50;;;;;;2613143;54;20141;-75
2022/07/08 06:31:09;;;;;;;6.60;4.00;;;18.00;28.80;;;;;;2611845;46;20154;-75
2022/07/08 06:36:56;;;;;;;8.10;3.77;;;18.40;23.10;;;;;;2613816;39;20612;-75
2022/07/08 06:42:43;;;;;;;6.73;3.50;;;17.90;24.40;;;;;;2614302;46;20145;-74
2022/07/08 06:48:31;;;;;;;5.50;3.13;;;17.70;27.20;;;;;;2614555;54;20234;-73
2022/07/08 06:54:37;;;;;;;7.70;3.73;;;17.90;23.50;;;;;;2612987;54;20154;-74
2022/07/08 07:00:25;;;;;;;5.47;3.57;;;18.60;21.90;;;;;;2612893;54;20420;-74
2022/07/08 07:09:35;;;;;;;5.60;3.63;;;18.80;14.20;;;;;;2614076;39;20837;-74
2022/07/08 07:15:23;;;;;;;7.00;3.83;;;19.80;10.00;;;;;;2613918;54;20402;-74
2022/07/08 07:21:11;;;;;;;8.53;3.90;;;21.70;3.20;;;;;;2613893;54;20135;-73
2022/07/08 07:26:59;;;;;;;7.03;4.80;;;21.90;1.00;;;;;;2611179;54;20126;-75
2022/07/08 07:32:46;;;;;;;8.23;5.10;;;22.30;1.00;;;;;;2613767;39;20537;-73
2022/07/08 07:38:34;;;;;;;8.70;5.10;;;22.70;1.00;;;;;;2614224;54;20130;-74
2022/07/08 07:44:22;;;;;;;4.97;4.27;;;23.60;1.00;;;;;;2613679;39;20548;-75
2022/07/08 07:50:12;;;;;;;6.00;4.20;;;23.60;1.00;;;;;;2614201;54;20158;-74
2022/07/08 07:55:59;;;;;;;9.20;5.00;;;23.50;1.00;;;;;;2613197;54;20387;-73
2022/07/08 08:01:46;;;;;;;5.30;4.80;;;23.60;1.00;;;;;;2614343;46;20170;-75
2022/07/08 08:07:42;;;;;;;4.80;4.30;;;23.00;1.00;;;;;;2612474;54;20139;-74
2022/07/08 08:13:30;;;;;;;6.57;4.40;;;23.40;1.00;;;;;;2613427;54;20171;-74
2022/07/08 08:19:17;;;;;;;5.10;3.80;;;23.30;1.00;;;;;;2613063;54;20394;-74
2022/07/08 08:25:05;;;;;;;4.80;4.30;;;22.80;1.00;;;;;;2613597;54;20492;-75
2022/07/08 08:30:52;;;;;;;7.03;4.67;;;24.50;1.00;;;;;;2614167;39;20801;-76
2022/07/08 08:36:39;;;;;;;6.40;5.60;;;25.00;1.00;;;;;;2613352;54;20251;-75
2022/07/08 08:42:27;;;;;;;5.50;4.80;;;23.30;1.00;;;;;;2613961;54;20144;-75
2022/07/08 08:48:17;;;;;;;5.00;4.40;;;23.40;1.00;;;;;;2614941;54;21376;-75
2022/07/08 08:54:05;;;;;;;5.17;4.67;;;24.50;1.00;;;;;;2612587;54;20403;-76
2022/07/08 08:59:53;;;;;;;5.73;5.23;;;24.50;1.00;;;;;;2615225;54;20395;-75
2022/07/08 09:15:57;;;;;;;4.93;4.43;;;23.20;1.00;;;;;;2613644;54;21164;-75
2022/07/08 09:21:52;;;;;;;5.57;4.33;;;23.70;1.00;;;;;;2613583;54;20427;-74
2022/07/08 09:27:39;;;;;;;4.83;4.37;;;23.70;1.00;;;;;;2613376;54;20443;-74
2022/07/08 09:33:28;;;;;;;5.60;3.80;;;24.00;1.00;;;;;;2613081;54;20534;-75
2022/07/08 09:39:28;;;;;;;6.43;5.10;;;23.80;1.00;;;;;;2613757;54;20433;-74
2022/07/08 09:45:15;;;;;;;4.87;4.10;;;23.80;1.00;;;;;;2613315;54;20529;-74
2022/07/08 09:51:10;;;;;;;6.67;4.80;;;24.50;1.00;;;;;;2614252;39;20460;-75
2022/07/08 09:57:01;;;;;;;4.87;4.47;;;24.20;1.00;;;;;;2612963;54;20382;-73
2022/07/08 10:02:49;;;;;;;5.90;4.67;;;24.10;1.00;;;;;;2612734;54;20424;-74
2022/07/08 10:11:57;;;;;;;10.70;5.40;;;23.70;1.00;;;;;;2611157;54;21031;-74
2022/07/08 10:17:45;;;;;;;7.83;4.93;;;24.40;1.00;;;;;;2612837;54;20170;-74
2022/07/08 10:23:39;;;;;;;5.47;4.97;;;26.10;1.00;;;;;;2612887;54;21020;-75
2022/07/08 10:29:32;;;;;;;6.40;4.87;;;25.80;1.00;;;;;;2614313;54;20419;-75
2022/07/08 10:35:21;;;;;;;8.43;5.43;;;24.30;1.00;;;;;;2614632;54;20630;-75
2022/07/08 10:41:10;;;;;;;5.27;4.77;;;24.50;1.00;;;;;;2614495;54;20453;-74
2022/07/08 10:53:46;;;;;;;4.33;4.03;;;23.70;1.00;;;;;;2612361;54;20399;-75
2022/07/08 11:02:59;;;;;;;6.90;3.80;;;23.10;1.00;;;;;;2612633;54;20355;-75
2022/07/08 11:09:01;;;;;;;11.13;3.70;;;23.10;1.00;;;;;;2613343;54;20371;-74
2022/07/08 11:14:53;;;;;;;5.33;4.40;;;23.60;1.00;;;;;;2613370;54;21023;-74
2022/07/08 11:20:40;;;;;;;5.93;3.97;;;24.00;1.00;;;;;;2612763;54;20398;-74
2022/07/08 11:26:29;;;;;;;5.90;5.07;;;24.30;1.00;;;;;;2614107;54;20328;-76
2022/07/08 11:32:19;;;;;;;5.07;4.47;;;24.50;1.00;;;;;;2615012;39;20847;-74
2022/07/08 11:38:06;;;;;;;4.40;4.00;;;24.40;1.00;;;;;;2613734;54;20395;-77
2022/07/08 11:43:54;;;;;;;5.70;4.40;;;24.30;1.00;;;;;;2613422;54;20130;-75
2022/07/08 11:49:43;;;;;;;8.20;4.87;;;24.90;1.00;;;;;;2614128;54;20725;-74
2022/07/08 11:55:30;;;;;;;5.23;4.33;;;25.00;1.00;;;;;;2615654;54;20405;-75
2022/07/08 12:01:20;;;;;;;4.43;4.13;;;25.40;1.00;;;;;;2615562;54;20125;-76
2022/07/08 12:24:12;;;;;;;6.47;4.27;;;24.00;1.00;;;;;;2612759;54;20439;-75
2022/07/08 12:33:33;;;;;;;7.37;5.07;;;25.20;1.00;;;;;;2613527;54;21007;-74
2022/07/08 12:39:22;;;;;;;6.17;4.20;;;25.20;1.00;;;;;;2612669;54;20428;-75
2022/07/08 12:45:16;;;;;;;5.60;4.33;;;26.20;1.00;;;;;;2612927;54;20505;-76
2022/07/08 12:51:04;;;;;;;12.10;4.37;;;25.90;1.00;;;;;;2612764;54;20537;-74
2022/07/08 12:54:06;;;;;;;6.77;6.07;;;25.80;1.00;;;;;;2612685;49;21134;-76
2022/07/08 12:56:32;;;;;;;5.20;4.80;;;25.60;1.00;;;;;;2614007;54;20411;-75
2022/07/08 13:02:20;;;;;;;5.40;4.90;;;25.20;1.00;;;;;;2612004;54;20209;-75
2022/07/08 13:08:27;;;;;;;5.63;4.73;;;25.00;1.00;;;;;;2611323;54;20158;-75
2022/07/08 13:14:15;;;;;;;5.60;5.00;;;26.10;1.00;;;;;;2612562;54;20628;-76
2022/07/08 13:20:03;;;;;;;8.63;5.27;;;25.40;1.00;;;;;;2612617;54;20995;-75
2022/07/08 13:25:51;;;;;;;7.13;4.03;;;25.60;1.00;;;;;;2612709;54;20387;-74
2022/07/08 13:31:38;;;;;;;10.67;4.53;;;25.90;1.00;;;;;;2612919;54;20379;-75
2022/07/08 13:37:25;;;;;;;5.00;4.10;;;25.80;1.00;;;;;;2612946;54;20178;-75
2022/07/08 13:43:12;;;;;;;4.97;4.47;;;26.00;1.00;;;;;;2612571;54;20771;-76
2022/07/08 13:49:00;;;;;;;4.00;3.70;;;26.80;1.00;;;;;;2613936;54;20130;-76
2022/07/08 13:54:48;;;;;;;9.77;4.50;;;27.70;1.00;;;;;;2614247;54;20369;-75
2022/07/08 14:00:36;;;;;;;10.03;4.70;;;27.30;1.00;;;;;;2613756;54;20427;-74
2022/07/08 14:09:46;;;;;;;5.33;4.73;;;26.30;1.00;;;;;;2613268;54;21005;-75
2022/07/08 14:15:34;;;;;;;7.97;4.73;;;26.10;1.00;;;;;;2614205;47;20576;-74
2022/07/08 14:21:22;;;;;;;6.43;4.53;;;25.60;1.00;;;;;;2614110;54;20184;-75
2022/07/08 14:27:09;;;;;;;10.47;4.57;;;25.50;1.00;;;;;;2614384;54;20592;-74
2022/07/08 14:32:56;;;;;;;5.63;4.90;;;25.60;1.00;;;;;;2611675;31;20623;-75
2022/07/08 14:38:44;;;;;;;4.20;3.40;;;25.90;1.00;;;;;;2612050;54;20147;-75
2022/07/08 14:44:31;;;;;;;7.33;4.53;;;25.50;1.00;;;;;;2612355;54;20122;-76
2022/07/08 14:53:56;;;;;;;7.47;4.80;;;26.60;1.00;;;;;;2630367;36;20395;-74
2022/07/08 14:59:44;;;;;;;5.37;4.00;;;26.10;1.00;;;;;;2612016;39;20581;-74
2022/07/08 15:15:44;;;;;;;4.80;4.23;;;25.00;1.00;;;;;;2612128;54;20391;-75
2022/07/08 15:21:31;;;;;;;5.03;4.20;;;24.80;1.00;;;;;;2612103;54;20403;-74
2022/07/08 15:27:19;;;;;;;6.03;3.80;;;24.80;1.00;;;;;;2613186;54;20157;-75
2022/07/08 15:33:07;;;;;;;10.00;5.00;;;25.20;1.00;;;;;;2613569;54;20475;-74
2022/07/08 15:38:54;;;;;;;5.47;3.90;;;25.60;1.00;;;;;;2612582;54;20247;-76
2022/07/08 15:44:40;;;;;;;4.90;4.40;;;26.80;1.00;;;;;;2613613;54;20138;-75
2022/07/08 15:50:28;;;;;;;4.57;4.27;;;28.20;1.00;;;;;;2615633;47;20144;-74
2022/07/08 15:56:15;;;;;;;5.33;4.53;;;27.30;1.00;;;;;;2615593;54;20124;-75
2022/07/08 16:02:03;;;;;;;4.80;4.40;;;26.60;1.00;;;;;;2614632;54;20667;-76
2022/07/08 16:08:09;;;;;;;4.70;4.30;;;25.90;1.00;;;;;;2612192;54;20142;-75
2022/07/08 16:13:57;;;;;;;4.67;3.77;;;26.30;1.00;;;;;;2612508;54;20145;-76
2022/07/08 16:19:44;;;;;;;5.43;4.90;;;26.20;1.00;;;;;;2613446;54;20171;-75
2022/07/08 16:25:32;;;;;;;4.33;3.93;;;26.40;1.00;;;;;;2613816;54;20967;-74
2022/07/08 16:31:20;;;;;;;4.80;4.00;;;26.00;1.00;;;;;;2613086;39;20209;-74
2022/07/08 16:37:07;;;;;;;4.60;4.10;;;25.70;1.00;;;;;;2613932;54;20151;-77
2022/07/08 16:42:54;;;;;;;9.97;4.63;;;25.40;1.00;;;;;;2613124;54;20134;-76
2022/07/08 16:48:42;;;;;;;5.87;5.20;;;24.90;1.00;;;;;;2613682;39;20454;-75
2022/07/08 16:54:29;;;;;;;11.10;4.93;;;24.40;1.00;;;;;;2613229;39;20482;-74
2022/07/08 17:00:17;;;;;;;7.10;5.00;;;24.50;1.00;;;;;;2614185;54;20379;-75
2022/07/08 17:16:23;;;;;;;4.50;4.10;;;24.10;1.70;;;;;;2613057;54;20386;-75
2022/07/08 17:22:11;;;;;;;6.07;4.30;;;24.50;1.30;;;;;;2613456;54;20138;-75
2022/07/08 17:27:58;;;;;;;7.03;4.93;;;25.20;1.00;;;;;;2612597;54;20438;-75
2022/07/08 17:33:45;;;;;;;5.90;5.40;;;25.90;1.00;;;;;;2612991;54;20259;-75
2022/07/08 17:39:32;;;;;;;5.80;4.37;;;25.40;1.00;;;;;;2612934;54;20241;-75
2022/07/08 17:45:20;;;;;;;5.10;4.43;;;25.60;1.00;;;;;;2613031;54;20203;-75
2022/07/08 17:51:07;;;;;;;5.80;4.00;;;25.00;1.00;;;;;;2614496;54;20134;-76
2022/07/08 17:56:56;;;;;;;5.67;4.07;;;24.70;1.00;;;;;;2614673;39;20523;-74
2022/07/08 18:02:43;;;;;;;4.63;4.03;;;24.40;1.00;;;;;;2614259;54;20391;-75
2022/07/08 18:11:53;;;;;;;4.63;3.33;;;24.30;1.00;;;;;;2615134;54;20832;-74
2022/07/08 18:17:41;;;;;;;4.57;3.60;;;24.00;1.80;;;;;;2614686;31;20621;-75
2022/07/08 18:23:29;;;;;;;3.40;3.20;;;23.70;2.80;;;;;;2614653;54;20153;-76
2022/07/08 18:29:17;;;;;;;3.40;3.10;;;23.50;3.30;;;;;;2614474;54;20178;-77
2022/07/08 18:35:05;;;;;;;4.93;3.47;;;23.30;4.40;;;;;;2614935;46;20442;-74
2022/07/08 18:40:53;;;;;;;4.30;3.53;;;23.10;6.20;;;;;;2614809;54;20403;-76
2022/07/08 18:46:41;;;;;;;6.80;4.87;;;23.10;6.00;;;;;;2614953;54;20447;-73
2022/07/08 18:49:44;;;;;;;4.00;3.60;;;22.90;6.70;;;;;;2614214;54;20404;-74
2022/07/08 18:52:09;;;;;;;4.70;3.43;;;22.90;6.90;;;;;;2614623;54;20153;-74
2022/07/08 18:57:57;;;;;;;6.33;4.10;;;22.80;8.00;;;;;;2614057;54;20134;-75
2022/07/08 19:03:45;;;;;;;5.63;3.80;;;22.80;8.20;;;;;;2613653;54;20151;-74
2022/07/08 19:09:32;;;;;;;4.13;2.93;;;22.60;9.50;;;;;;2614423;54;20323;-75
2022/07/08 19:15:21;;;;;;;5.17;3.60;;;22.50;9.60;;;;;;2614734;54;20161;-74
2022/07/08 19:21:08;;;;;;;7.07;4.33;;;22.30;11.00;;;;;;2614722;54;20391;-76
2022/07/08 19:26:56;;;;;;;4.37;3.97;;;22.20;11.40;;;;;;2614941;39;20548;-76
2022/07/08 19:32:44;;;;;;;5.80;3.60;;;22.10;12.00;;;;;;2614179;54;20229;-74
2022/07/08 19:38:33;;;;;;;5.60;4.10;;;22.00;13.10;;;;;;2614573;54;20745;-75
2022/07/08 19:44:20;;;;;;;5.57;4.23;;;21.80;14.90;;;;;;2614588;54;20391;-76
2022/07/08 19:50:09;;;;;;;5.87;4.13;;;21.60;16.40;;;;;;2613839;54;20154;-74
2022/07/08 19:55:56;;;;;;;7.03;4.20;;;21.50;17.90;;;;;;2613483;54;20407;-75
2022/07/08 20:01:44;;;;;;;6.40;4.10;;;21.20;20.90;;;;;;2614439;54;20612;-75
2022/07/08 20:07:32;;;;;;;5.00;4.60;;;20.90;25.50;;;;;;2614695;54;20387;-75
2022/07/08 20:13:20;;;;;;;5.40;4.43;;;20.80;29.90;;;;;;2611993;46;20407;-74
2022/07/08 20:19:08;;;;;;;5.13;4.00;;;20.70;31.20;;;;;;2614526;54;20171;-76
2022/07/08 20:25:06;;;;;;;4.50;4.10;;;20.60;32.40;;;;;;2631619;36;20312;-75
2022/07/08 20:30:53;;;;;;;4.63;4.10;;;20.60;36.30;;;;;;2612817;54;20444;-76
2022/07/08 20:36:41;;;;;;;6.30;5.70;;;20.40;40.30;;;;;;2613303;54;20130;-74
2022/07/08 20:45:50;;;;;;;5.33;4.10;;;20.20;48.20;;;;;;2614022;54;20387;-75
2022/07/08 20:51:38;;;;;;;5.20;4.67;;;20.10;50.40;;;;;;2613736;54;20129;-74
2022/07/08 20:57:25;;;;;;;5.20;4.70;;;19.80;55.60;;;;;;2614193;54;20660;-75
2022/07/08 21:03:12;;;;;;;5.23;4.73;;;19.50;67.80;;;;;;2614105;54;20433;-74
2022/07/08 21:12:22;;;;;;;5.67;4.33;;;19.30;82.20;;;;;;2613930;54;20421;-74
2022/07/08 21:18:10;;;;;;;5.03;4.63;;;19.30;86.60;;;;;;2614486;54;20130;-74
2022/07/08 21:23:58;;;;;;;5.57;4.93;;;19.30;88.00;;;;;;2612723;54;20137;-74
2022/07/08 21:29:45;;;;;;;7.80;5.80;;;19.30;91.60;;;;;;2613725;54;20140;-74
2022/07/08 21:35:33;;;;;;;6.47;5.87;;;19.20;92.00;;;;;;2614912;54;20141;-74
2022/07/08 21:41:21;;;;;;;6.07;5.30;;;18.90;97.50;;;;;;2614328;54;20133;-75
2022/07/08 21:47:09;;;;;;;6.07;5.33;;;18.70;99.90;;;;;;2614468;39;20555;-73
2022/07/08 21:52:58;;;;;;;7.07;6.03;;;18.80;99.90;;;;;;2614303;54;20133;-74
2022/07/08 21:58:45;;;;;;;7.30;5.73;;;18.70;99.90;;;;;;2614215;54;20419;-74
2022/07/08 22:04:33;;;;;;;7.20;5.00;;;18.60;99.90;;;;;;2614589;54;20137;-75
2022/07/08 22:10:28;;;;;;;6.07;5.47;;;18.30;99.90;;;;;;2613396;54;20142;-74
2022/07/08 22:16:16;;;;;;;5.40;4.90;;;18.30;99.90;;;;;;2613382;54;20265;-73
2022/07/08 22:22:05;;;;;;;5.93;5.43;;;18.30;99.90;;;;;;2611583;54;20466;-74
2022/07/08 22:27:53;;;;;;;7.93;5.17;;;18.30;99.90;;;;;;2612969;54;21107;-74
2022/07/08 22:33:40;;;;;;;7.40;5.47;;;18.10;99.90;;;;;;2613439;54;20369;-75
2022/07/08 22:39:27;;;;;;;6.80;6.10;;;18.00;99.90;;;;;;2613005;54;20121;-74
2022/07/08 22:45:16;;;;;;;6.67;5.70;;;17.90;99.90;;;;;;2613876;54;20152;-75
2022/07/08 22:51:04;;;;;;;7.17;6.17;;;17.80;99.90;;;;;;2615252;54;20445;-75
2022/07/08 22:56:54;;;;;;;11.23;6.70;;;17.70;99.90;;;;;;2614797;54;20413;-75
2022/07/08 23:02:42;;;;;;;6.60;6.00;;;17.60;99.90;;;;;;2614736;54;20404;-74
2022/07/08 23:12:14;;;;;;;8.27;6.17;;;17.50;99.90;;;;;;2614780;54;20938;-75
2022/07/08 23:18:01;;;;;;;6.83;6.10;;;17.40;99.90;;;;;;2614828;54;20938;-75
2022/07/08 23:23:49;;;;;;;6.23;5.63;;;17.30;99.90;;;;;;2614970;54;20131;-74
2022/07/08 23:29:37;;;;;;;8.43;6.40;;;17.30;99.90;;;;;;2615181;54;20149;-73
2022/07/08 23:35:25;;;;;;;7.07;6.40;;;17.20;99.90;;;;;;2614557;54;20805;-73
2022/07/08 23:41:14;;;;;;;7.77;6.40;;;17.20;99.90;;;;;;2614215;54;20404;-74
2022/07/08 23:47:01;;;;;;;8.50;7.10;;;17.00;99.90;;;;;;2615516;54;20393;-74
2022/07/08 23:52:49;;;;;;;9.30;6.70;;;17.10;99.90;;;;;;2615193;54;20302;-73
2022/07/08 23:58:36;;;;;;;13.10;7.07;;;17.00;99.90;;;;;;2615539;54;20156;-75
